»·PEaware :: AFR83 KSFO-LFPG

AFR83 :: KSFO-LFPG

FLIGHT INFORMATION

Flight Status: Arrived
Operator:
Air France
More flights by this operator :: More flights under this callsign
Pilot: Tyler B. (19112)
Aircraft: AIRBUS A330
(A330)
More flights by this aircraft type
Origin: KSFO San Francisco Intl
United States
Destination: LFPG Charles-De-Gaulle
France
More flights between these airports :: More routes between these airports
Route: SAC035016 MOT/N0472F370 YRL GADRU CHARN HELMO KLIPS VERCH/M082F370 SAVRY 60N050W/M082F390 59N040W 58N030W 56N020W PIKIL SOVED/N0471F390 BAKUR UN546 STU UP2 NIGIT UL18 SFD UM605 HARDY/N0440F230 M605 XIDIL/N0411F190 M605 BIBAX BIBA7D
File this flight plan on PilotEdge
Remarks:
Altitude:
(Current/Filed)
39,000ft
Speed:
(Current/Filed)
495kts
Departed: 06-May-18 03:27 AM
Arrived: 06-May-18 05:58 AM
Distance/Time
Traveled:
4837nm/2:31
Distance/Time
To Go:
Arrived

Flight Plot

Page will automatically refresh every two minutes.

Flight plan parsing failed; only flown route is shown


Map Options




Map Legend


Flown Route
Filed Route
Departure Airport
Arrival Airport
Navaid (VOR, NDB)
Fix

Horizontal Profiles

Position Reports

Time Latitude Longitude Heading Altitude Ground
Speed
06-May-18 03:26 58.306703 -32.311616 105 36998ft 567kts
06-May-18 03:27 58.270558 -32.022103 104 37004ft 564kts
06-May-18 03:28 58.234153 -31.732070 104 37004ft 564kts
06-May-18 03:29 58.197246 -31.443732 104 37002ft 565kts
06-May-18 03:30 58.159039 -31.155596 105 37002ft 567kts
06-May-18 03:31 58.120299 -30.864699 104 37001ft 571kts
06-May-18 03:32 58.080851 -30.573836 104 37064ft 571kts
06-May-18 03:33 58.040686 -30.285387 106 36552ft 558kts
06-May-18 03:34 58.000741 -30.005226 105 36595ft 563kts
06-May-18 03:35 57.959075 -29.729585 106 36595ft 566kts
06-May-18 03:36 57.915452 -29.446136 106 36590ft 567kts
06-May-18 03:37 57.870027 -29.163387 107 36587ft 565kts
06-May-18 03:38 57.825008 -28.881592 106 36587ft 564kts
06-May-18 03:39 57.779598 -28.601463 106 36590ft 562kts
06-May-18 03:40 57.734109 -28.325411 108 36589ft 562kts
06-May-18 03:41 57.686966 -28.047155 107 36590ft 563kts
06-May-18 03:42 57.639820 -27.769646 107 36589ft 563kts
06-May-18 03:43 57.591933 -27.492044 107 36589ft 563kts
06-May-18 03:44 57.543034 -27.215585 108 36587ft 562kts
06-May-18 03:45 57.494041 -26.940439 108 36589ft 557kts
06-May-18 03:46 57.445261 -26.670118 108 36592ft 554kts
06-May-18 03:47 57.395850 -26.400080 108 36591ft 553kts
06-May-18 03:48 57.345395 -26.131071 109 36588ft 554kts
06-May-18 03:49 57.294794 -25.862497 109 36590ft 554kts
06-May-18 03:50 57.241703 -25.584548 109 36591ft 554kts
06-May-18 03:51 57.069880 -24.713294 111 36590ft 540kts
06-May-18 03:52 57.017223 -24.453841 110 36582ft 549kts
06-May-18 03:53 56.963423 -24.193861 111 36587ft 547kts
06-May-18 03:54 56.909081 -23.932645 111 36591ft 548kts
06-May-18 03:55 56.853387 -23.674331 111 36591ft 548kts
06-May-18 03:56 56.798270 -23.416063 111 36591ft 548kts
06-May-18 03:57 56.742306 -23.159002 113 36636ft 547kts
06-May-18 03:58 56.686107 -22.902016 113 36697ft 545kts
06-May-18 03:59 56.630284 -22.649735 114 36702ft 537kts
06-May-18 04:00 56.574168 -22.399157 114 36699ft 539kts
06-May-18 04:01 56.517346 -22.150754 114 36696ft 539kts
06-May-18 04:02 56.460020 -21.900957 114 36697ft 538kts
06-May-18 04:03 56.402258 -21.652092 114 36698ft 539kts
06-May-18 04:04 56.343874 -21.403456 114 36699ft 539kts
06-May-18 04:05 56.284679 -21.156617 115 36698ft 538kts
06-May-18 04:06 56.225783 -20.911661 117 36697ft 528kts
06-May-18 04:07 56.163105 -20.653994 117 36698ft 527kts
06-May-18 04:08 56.044365 -20.177062 118 36695ft 525kts
06-May-18 04:09 55.999044 -19.673621 70 36710ft 540kts
06-May-18 04:10 56.013830 -19.145542 87 36737ft 538kts
06-May-18 04:11 56.020711 -18.614579 92 36713ft 534kts
06-May-18 04:12 56.023836 -18.089636 92 36687ft 536kts
06-May-18 04:13 56.025773 -17.558240 93 36672ft 536kts
06-May-18 04:14 56.024459 -17.027789 93 36682ft 535kts
06-May-18 04:15 56.021666 -16.498110 96 37294ft 532kts
06-May-18 04:16 56.015927 -15.966883 96 37235ft 534kts
06-May-18 04:17 56.008538 -15.436846 96 37213ft 536kts
06-May-18 04:18 55.999138 -14.907675 97 37182ft 538kts
06-May-18 04:19 56.001488 -14.372391 97 37188ft 539kts
06-May-18 04:20 55.980682 -13.850182 123 37238ft 503kts
06-May-18 04:21 55.798765 -13.525449 130 37224ft 493kts
06-May-18 04:22 55.656821 -13.116236 133 37250ft 489kts
06-May-18 04:23 55.503429 -12.726545 136 37228ft 481kts
06-May-18 04:24 55.349805 -12.344997 137 37202ft 484kts
06-May-18 04:25 55.196090 -11.969993 137 37184ft 482kts
06-May-18 04:26 55.038932 -11.591208 137 37207ft 482kts
06-May-18 04:27 54.882471 -11.220970 137 37238ft 490kts
06-May-18 04:28 54.719679 -10.843434 136 37227ft 490kts
06-May-18 04:29 54.556165 -10.466950 136 37226ft 491kts
06-May-18 04:30 54.393287 -10.098039 136 37185ft 489kts
06-May-18 04:31 54.287959 -9.862249 136 37211ft 495kts
06-May-18 04:32 54.204575 -9.676937 136 37199ft 494kts
06-May-18 04:33 54.120630 -9.491797 136 37201ft 494kts
06-May-18 04:34 54.036595 -9.308020 137 37205ft 494kts
06-May-18 04:35 53.952902 -9.126489 137 37212ft 493kts
06-May-18 04:36 53.868566 -8.946606 137 37209ft 489kts
06-May-18 04:37 53.785472 -8.769979 136 37210ft 489kts
06-May-18 04:38 53.701010 -8.590417 136 37209ft 490kts
06-May-18 04:39 53.616121 -8.411194 136 37209ft 489kts
06-May-18 04:40 53.532837 -8.237005 137 37211ft 488kts
06-May-18 04:41 53.448065 -8.060642 137 37212ft 490kts
06-May-18 04:42 53.364920 -7.888826 137 37213ft 488kts
06-May-18 04:43 53.279540 -7.713581 137 37240ft 488kts
06-May-18 04:44 53.193911 -7.539082 137 37115ft 489kts
06-May-18 04:45 53.107856 -7.364931 137 37063ft 488kts
06-May-18 04:46 53.022102 -7.193309 136 37092ft 491kts
06-May-18 04:47 52.936051 -7.021631 134 37148ft 486kts
06-May-18 04:48 52.851375 -6.855366 134 37146ft 485kts
06-May-18 04:49 52.765136 -6.685728 134 37196ft 487kts
06-May-18 04:50 52.678590 -6.516370 134 37210ft 485kts
06-May-18 04:51 52.592264 -6.348575 135 37209ft 486kts
06-May-18 04:52 52.505631 -6.182392 135 37237ft 486kts
06-May-18 04:53 52.419570 -6.017436 135 37226ft 485kts
06-May-18 04:54 52.331694 -5.850123 135 37236ft 486kts
06-May-18 04:55 52.243629 -5.683562 133 37159ft 486kts
06-May-18 04:56 52.171575 -5.496214 126 37246ft 492kts
06-May-18 04:57 52.099901 -5.310210 127 37099ft 489kts
06-May-18 04:58 52.027448 -5.124262 126 37241ft 493kts
06-May-18 04:58 51.976647 -4.959254 109 37267ft 501kts
06-May-18 04:59 51.933202 -4.748106 111 37247ft 493kts
06-May-18 05:00 51.888629 -4.539293 111 37077ft 494kts
06-May-18 05:01 51.844377 -4.334532 112 37002ft 493kts
06-May-18 05:02 51.799063 -4.129060 112 37002ft 493kts
06-May-18 05:03 51.753971 -3.923919 112 37002ft 493kts
06-May-18 05:04 51.708313 -3.718196 112 37002ft 493kts
06-May-18 05:06 51.654980 -3.480530 112 37001ft 493kts
06-May-18 05:06 51.617732 -3.317011 113 37001ft 493kts
06-May-18 05:07 51.586991 -3.110377 104 36995ft 497kts
06-May-18 05:08 51.559072 -2.899234 103 37002ft 493kts
06-May-18 05:09 51.530866 -2.689644 103 37002ft 493kts
06-May-18 05:10 51.502825 -2.484322 103 37002ft 493kts
06-May-18 05:11 51.473320 -2.274383 104 37082ft 492kts
06-May-18 05:12 51.443840 -2.065261 104 37114ft 495kts
06-May-18 05:13 51.413414 -1.851654 104 37004ft 492kts
06-May-18 05:14 51.382681 -1.638742 104 37007ft 493kts
06-May-18 05:15 51.351548 -1.426142 104 37005ft 492kts
06-May-18 05:16 51.319885 -1.216763 105 37005ft 492kts
06-May-18 05:17 51.249646 -1.035602 125 37008ft 494kts
06-May-18 05:18 51.167588 -0.862601 127 37076ft 490kts
06-May-18 05:19 51.085250 -0.689944 127 37238ft 493kts
06-May-18 05:20 51.009786 -0.510302 122 37225ft 491kts
06-May-18 05:21 50.939528 -0.329855 123 37212ft 476kts
06-May-18 05:22 50.872382 -0.160377 121 37215ft 474kts
06-May-18 05:23 50.803010 0.015305 120 37213ft 474kts
06-May-18 05:24 50.721042 0.175283 143 37247ft 479kts
06-May-18 05:25 50.617166 0.305739 139 37218ft 477kts
06-May-18 05:26 50.514615 0.436293 139 37234ft 479kts
06-May-18 05:27 50.411128 0.567147 139 37240ft 478kts
06-May-18 05:28 50.310886 0.692605 140 37238ft 478kts
06-May-18 05:29 50.208788 0.820359 139 37237ft 479kts
06-May-18 05:30 50.105510 0.948697 139 37184ft 462kts
06-May-18 05:31 49.989285 1.010286 179 37229ft 474kts
06-May-18 05:32 49.859732 1.016858 181 34411ft 490kts
06-May-18 05:33 49.758133 0.892094 230 31821ft 496kts
06-May-18 05:34 49.637236 0.816987 200 28511ft 494kts
06-May-18 05:35 49.520313 0.715429 207 26367ft 476kts
06-May-18 05:36 49.408803 0.731026 144 24651ft 394kts
06-May-18 05:38 49.337998 0.839866 106 22400ft 368kts
06-May-18 05:39 49.324309 0.991485 94 20582ft 357kts
06-May-18 05:40 49.318171 1.136737 93 17907ft 340kts
06-May-18 05:41 49.312652 1.274304 93 15223ft 325kts
06-May-18 05:42 49.307156 1.407977 93 12868ft 302kts
06-May-18 05:43 49.301918 1.530297 93 11305ft 283kts
06-May-18 05:44 49.296813 1.649396 93 10762ft 281kts
06-May-18 05:45 49.282497 1.761001 135 10346ft 281kts
06-May-18 05:46 49.211635 1.811361 154 9349ft 283kts
06-May-18 05:47 49.146221 1.870964 134 8319ft 276kts
06-May-18 05:48 49.090615 1.948725 135 7479ft 274kts
06-May-18 05:49 49.035394 2.024785 135 6653ft 271kts
06-May-18 05:50 48.985301 2.093334 135 5860ft 225kts
06-May-18 05:51 48.974500 2.164875 84 5232ft 180kts
06-May-18 05:52 48.978422 2.234768 83 4506ft 165kts
06-May-18 05:53 48.982183 2.301258 83 3631ft 163kts
06-May-18 05:54 48.985907 2.368819 82 2739ft 162kts
06-May-18 05:55 48.989380 2.433100 82 1896ft 143kts
06-May-18 05:56 48.992494 2.490950 82 1164ft 140kts
06-May-18 05:57 48.995384 2.549276 81 407ft 138kts
06-May-18 05:58 48.997690 2.581712 63 336ft 22kts
06-May-18 05:59 48.999624 2.587323 10 334ft 10kts
06-May-18 06:00 49.000781 2.583085 282 341ft 13kts
06-May-18 06:01 49.000799 2.576277 348 348ft 5kts
06-May-18 06:02 49.001437 2.576181 353 348ft 0kts
06-May-18 06:03 49.001437 2.576181 353 348ft 0kts
06-May-18 06:04 49.001437 2.576181 353 348ft 0kts
06-May-18 06:05 49.001437 2.576181 353 348ft 0kts
06-May-18 06:06 49.001437 2.576181 353 348ft 0kts
06-May-18 06:07 49.001437 2.576181 353 348ft 0kts
06-May-18 06:08 49.001437 2.576181 353 348ft 0kts
06-May-18 06:09 49.001437 2.576181 353 348ft 0kts
06-May-18 06:10 49.001437 2.576181 353 348ft 0kts
06-May-18 06:11 49.001437 2.576181 353 348ft 0kts
06-May-18 06:12 49.001437 2.576181 353 348ft 0kts

Navigation Log

Ident Type
Flight plan parsing failed, navigation log unavailable